Latest Weather Observations for Tasman Island

IDT60801

Issued at 9:31 am EDT Wednesday 28 January 2015 (issued every 30 minutes, with the page automatically refreshed every 10 minutes)

About weather observations | Map of weather stations | Latest weather observations for TAS | Other Formats
Station Details ID: 094155 Name: TASMAN ISLAND Lat: -43.24 Lon: 148.00 Height: 240.0 m
Data from the previous 72 hours. | See also: Recent months at Tasman Island
Date/Time
EDT
Temp
°C
App
Temp
°C
Dew
Point
Rel
Hum
%
Delta-T
°C
Wind Press
QNH
hPa
Press
MSL
hPa
Rain
since 9 am
mm
Dir
 
Spd
km/h
Gust
km/h
Spd
kts
Gust
kts
28/09:30am 11.7 6.0 5.1 64 3.1 SSE 24 44 13 24 1024.0 1023.7 0.0
28/09:00am 12.3 7.0 5.2 62 3.3 SSE 22 37 12 20 1023.8 1023.5 0.4
28/08:30am 11.0 6.1 4.9 66 2.8 S 20 33 11 18 1023.6 1023.3 0.4
28/08:00am 11.1 6.4 6.0 71 2.4 SSE 20 33 11 18 1023.0 1022.8 0.4
28/07:30am 10.9 6.2 6.1 72 2.3 SSE 20 35 11 19 1022.7 1022.5 0.4
28/07:00am 10.8 6.2 6.7 76 2.0 SSE 20 39 11 21 1022.4 1022.2 0.4
28/06:30am 10.8 6.4 6.7 76 2.0 SSE 19 33 10 18 1022.0 1021.8 0.4
28/06:00am 10.6 6.2 7.5 81 1.5 SSE 20 35 11 19 1021.9 1021.7 0.4
28/05:30am 10.4 6.3 7.8 84 1.3 SSE 19 32 10 17 1021.7 1021.5 0.4
28/05:00am 10.3 5.9 8.9 91 0.7 SSE 22 37 12 20 1021.3 1021.1 0.4
28/04:30am 10.4 6.8 8.2 86 1.1 SSE 17 30 9 16 1021.2 1021.0 0.4
28/04:00am 10.5 6.3 7.4 81 1.5 S 19 30 10 16 1021.2 1021.0 0.4
28/03:30am 10.6 7.2 7.8 83 1.4 S 15 28 8 15 1021.3 1021.1 0.4
28/03:00am 10.6 6.9 7.8 83 1.4 S 17 33 9 18 1021.4 1021.2 0.4
28/02:30am 10.7 6.8 8.8 88 1.0 S 19 32 10 17 1021.6 1021.4 0.4
28/02:00am 10.9 6.3 8.3 84 1.3 SSW 22 32 12 17 1021.5 1021.3 0.4
28/01:30am 10.5 5.9 8.3 86 1.1 SSW 22 35 12 19 1021.5 1021.3 0.4
28/01:00am 10.3 6.3 8.4 88 0.9 SSW 19 32 10 17 1021.5 1021.3 0.0
28/12:30am 10.6 7.5 8.9 89 0.9 SSW 15 28 8 15 1021.5 1021.3 0.0
28/12:00am 10.5 5.0 7.4 81 1.5 SSW 26 37 14 20 1021.5 1021.3 0.0
 
Date/Time
EDT
Temp
°C
App
Temp
°C
Dew
Point
Rel
Hum
%
Delta-T
°C
Wind Press
QNH
hPa
Press
MSL
hPa
Rain
since 9 am
mm
Dir
 
Spd
km/h
Gust
km/h
Spd
kts
Gust
kts
27/11:30pm 11.2 5.8 8.2 82 1.5 SSW 26 39 14 21 1021.3 1021.1 0.0
27/11:00pm 11.5 7.2 7.8 78 1.8 SSW 20 30 11 16 1021.3 1021.1 0.0
27/10:30pm 11.3 7.6 7.8 79 1.7 SSW 17 30 9 16 1021.2 1021.0 0.0
27/10:00pm 11.0 5.3 6.9 76 2.0 SW 26 41 14 22 1021.1 1020.9 0.0
27/09:30pm 11.3 6.0 7.0 75 2.1 SSW 24 35 13 19 1020.8 1020.6 0.0
27/09:00pm 11.3 6.6 6.2 71 2.4 SSW 20 35 11 19 1020.6 1020.3 0.0
27/08:30pm 11.7 6.6 7.8 77 1.9 SSW 24 39 13 21 1020.3 1020.0 0.0
27/08:00pm 12.0 6.9 7.7 75 2.1 SSW 24 37 13 20 1019.9 1019.6 0.0
27/07:30pm 12.3 6.6 8.4 77 2.0 SSW 28 39 15 21 1019.6 1019.3 0.0
27/07:00pm 12.7 7.8 8.4 75 2.2 SSW 24 39 13 21 1019.3 1019.0 0.0
27/06:30pm 13.2 8.2 7.9 70 2.6 SSW 24 43 13 23 1019.0 1018.7 0.0
27/06:00pm 13.5 8.6 8.4 71 2.6 SW 24 43 13 23 1018.7 1018.5 0.0
27/05:30pm 13.5 7.7 8.1 70 2.7 SW 28 41 15 22 1018.6 1018.4 0.0
27/05:00pm 13.9 8.1 8.1 68 2.9 SW 28 41 15 22 1018.5 1018.3 0.0
27/04:30pm 13.2 7.4 8.1 71 2.6 SW 28 39 15 21 1018.5 1018.3 0.0
27/04:00pm 15.0 10.1 8.3 64 3.4 SW 24 35 13 19 1018.5 1018.3 0.0
27/03:30pm 14.5 9.4 7.5 63 3.5 SW 24 33 13 18 1018.5 1018.3 0.0
27/03:00pm 14.5 10.5 8.2 66 3.2 SW 19 28 10 15 1018.4 1018.2 0.0
27/02:30pm 15.4 12.2 8.6 64 3.5 SW 15 26 8 14 1018.3 1018.1 0.0
27/02:00pm 14.4 11.4 7.7 64 3.4 SW 13 20 7 11 1018.4 1018.2 0.0
27/01:30pm 14.6 11.8 6.9 60 3.8 SW 11 17 6 9 1018.3 1018.1 0.0
27/01:00pm 14.8 12.0 6.9 59 3.9 SW 11 17 6 9 1018.3 1018.1 0.0
27/12:30pm 15.2 12.2 7.5 60 3.9 SW 13 17 7 9 1018.2 1018.0 0.0
27/12:00pm 14.8 12.5 7.4 61 3.7 WSW 9 15 5 8 1018.1 1017.9 0.0
27/11:30am 14.2 11.9 7.5 64 3.3 WSW 9 17 5 9 1018.1 1017.9 0.0
27/11:00am 14.2 11.4 8.4 68 2.9 SSW 13 22 7 12 1018.2 1018.0 0.0
27/10:30am 13.9 10.8 7.2 64 3.3 SW 13 19 7 10 1018.1 1017.9 0.0
27/10:00am 12.7 11.1 7.8 72 2.4 WSW 6 9 3 5 1018.0 1017.8 0.0
27/09:30am 12.3 10.7 8.0 75 2.1 NW 6 9 3 5 1017.8 1017.6 0.0
27/09:00am 11.7 10.5 8.0 78 1.8 SW 4 9 2 5 1017.6 1017.4 2.2
27/08:30am 11.6 9.4 7.9 78 1.8 SW 9 19 5 10 1017.6 1017.4 2.2
27/08:00am 10.8 7.7 7.3 79 1.7 SSW 13 22 7 12 1017.3 1017.1 2.2
27/07:30am 10.4 7.6 8.5 88 0.9 SSW 13 24 7 13 1017.1 1016.9 2.2
27/07:00am 10.4 8.6 9.3 93 0.6 SSW 9 13 5 7 1016.8 1016.5 2.2
27/06:30am 10.1 8.6 8.5 90 0.8 SSW 6 7 3 4 1016.7 1016.4 2.2
27/06:00am 10.3 9.1 8.1 86 1.1 SSW 4 6 2 3 1016.6 1016.3 2.2
27/05:30am 10.1 8.5 7.9 86 1.1 SSW 6 7 3 4 1016.4 1016.1 2.2
27/05:00am 10.3 9.5 8.1 86 1.1 WNW 2 4 1 2 1016.3 1016.0 2.2
27/04:30am 10.1 8.9 8.0 87 1.0 WSW 4 7 2 4 1016.4 1016.1 2.2
27/04:00am 9.8 8.2 8.6 92 0.6 WNW 7 9 4 5 1016.5 1016.2 2.0
27/03:30am 9.4 7.4 8.5 94 0.4 WNW 9 13 5 7 1016.9 1016.6 2.0
27/03:00am 9.4 7.6 8.0 91 0.7 WNW 7 11 4 6 1017.0 1016.7 1.6
27/02:30am 9.9 7.5 8.5 91 0.7 NW 11 19 6 10 1017.2 1017.0 1.2
27/02:00am 9.9 8.3 8.7 92 0.6 WNW 7 9 4 5 1017.3 1017.1 1.0
27/01:30am 9.7 8.3 8.8 94 0.4 WNW 6 11 3 6 1017.3 1017.1 0.8
27/01:00am 10.4 9.9 9.5 94 0.5 NW 2 9 1 5 1017.5 1017.3 0.2
27/12:30am 11.0 9.4 8.2 83 1.4 NW 6 15 3 8 1017.6 1017.4 0.0
27/12:00am 11.4 9.7 7.7 78 1.8 NW 6 17 3 9 1017.5 1017.3 0.0
 
Date/Time
EDT
Temp
°C
App
Temp
°C
Dew
Point
Rel
Hum
%
Delta-T
°C
Wind Press
QNH
hPa
Press
MSL
hPa
Rain
since 9 am
mm
Dir
 
Spd
km/h
Gust
km/h
Spd
kts
Gust
kts
26/11:30pm 11.4 9.8 8.1 80 1.6 NW 6 20 3 11 1017.5 1017.3 0.0
26/11:00pm 11.2 8.2 7.9 80 1.6 SW 13 24 7 13 1017.4 1017.2 0.0
26/10:30pm 11.5 9.8 8.2 80 1.6 WSW 7 20 4 11 1017.5 1017.3 0.0
26/10:00pm 11.3 9.0 7.6 78 1.8 SW 9 24 5 13 1017.3 1017.1 0.0
26/09:30pm 11.0 7.2 7.5 79 1.7 SW 17 43 9 23 1016.7 1016.4 0.0
26/09:00pm 11.1 5.2 7.4 78 1.8 SW 28 46 15 25 1016.4 1016.1 0.0
26/08:30pm 10.9 4.1 7.0 77 1.9 SW 32 44 17 24 1016.2 1015.9 0.0
26/08:00pm 11.3 6.6 7.6 78 1.8 SSW 22 41 12 22 1015.7 1015.4 0.0
26/07:31pm 11.8 5.9 7.3 74 2.2 SW 28 50 15 27 1015.2 1014.9 0.0
26/07:30pm 11.9 6.4 7.6 75 2.1 SSW 26 46 14 25 1015.2 1014.9 0.0
26/07:00pm 12.1 6.1 7.2 72 2.4 SW 28 48 15 26 1015.0 1014.7 0.0
26/06:48pm 12.2 6.2 7.1 71 2.5 SW 28 46 15 25 1014.8 1014.5 0.0
26/06:30pm 12.3 5.9 7.0 70 2.6 SW 30 46 16 25 1014.6 1014.3 0.0
26/06:24pm 12.4 6.5 7.3 71 2.5 SW 28 46 15 25 1014.5 1014.2 0.0
26/06:00pm 12.4 7.0 6.2 66 3.0 SSW 24 44 13 24 1014.3 1014.1 0.0
26/05:30pm 12.5 5.6 6.5 67 2.9 SW 32 50 17 27 1014.1 1013.9 0.0
26/05:09pm 12.4 6.0 5.1 61 3.4 SSW 28 54 15 29 1014.2 1014.0 0.0
26/05:00pm 12.9 8.2 6.0 63 3.3 SSW 20 46 11 25 1014.2 1014.0 0.0
26/04:30pm 12.3 7.6 6.1 66 3.0 SSW 20 46 11 25 1014.5 1014.2 0.0
26/04:13pm 11.9 5.8 6.6 70 2.6 SW 28 56 15 30 1014.2 1014.0 0.0
26/04:00pm 12.1 6.5 7.2 72 2.4 SSW 26 59 14 32 1013.9 1013.7 0.0
26/03:30pm 12.4 6.4 6.9 69 2.7 SW 28 54 15 29 1013.7 1013.5 0.0
26/03:00pm 12.8 6.4 6.8 67 2.9 SW 30 52 16 28 1013.7 1013.5 0.0
26/02:30pm 12.4 6.5 7.5 72 2.4 SW 28 52 15 28 1013.2 1012.9 0.0
26/02:24pm 13.4 8.7 7.6 68 2.9 SW 22 50 12 27 1013.3 1013.0 0.0
26/02:00pm 13.1 7.6 6.0 62 3.4 WSW 24 46 13 25 1013.3 1013.0 0.0
26/01:30pm 13.5 9.4 6.1 61 3.6 WSW 17 37 9 20 1013.4 1013.1 0.0
26/01:00pm 13.5 9.2 6.8 64 3.3 SW 19 33 10 18 1013.3 1013.0 0.0
26/12:30pm 13.2 10.4 5.1 58 3.8 SW 9 32 5 17 1013.1 1012.8 0.0
26/12:00pm 12.9 10.1 5.1 59 3.7 WSW 9 30 5 16 1012.7 1012.4 0.0
26/11:30am 11.9 9.2 5.5 65 3.0 NW 9 33 5 18 1012.8 1012.5 0.0
26/11:00am 10.3 7.3 5.9 74 2.1 NNW 11 41 6 22 1012.8 1012.5 0.0
26/10:30am 11.6 8.8 5.3 65 2.9 W 9 32 5 17 1012.4 1012.1 0.0
26/10:00am 11.4 8.5 4.6 63 3.1 W 9 43 5 23 1012.2 1011.9 0.0
26/09:30am 11.6 9.1 5.0 64 3.1 NE 7 20 4 11 1011.8 1011.5 0.0
26/09:00am 11.0 8.2 5.3 68 2.6 ENE 9 22 5 12 1011.4 1011.1 4.2
26/08:30am 10.3 7.0 4.5 67 2.6 WNW 11 32 6 17 1010.8 1010.5 4.2
26/08:00am 10.1 6.8 4.7 69 2.5 ENE 11 33 6 18 1010.1 1009.8 4.2
26/07:30am 9.8 7.0 5.0 72 2.2 E 9 30 5 16 1009.4 1009.1 4.2
26/07:00am 9.9 7.6 5.7 75 2.0 NNW 7 26 4 14 1008.9 1008.6 4.2
26/06:30am 9.7 6.2 5.5 75 1.9 SW 13 35 7 19 1008.3 1008.0 4.2
26/06:00am 9.6 6.0 5.0 73 2.1 NW 13 35 7 19 1007.5 1007.2 4.2
26/05:30am 9.4 5.8 5.2 75 1.9 NW 13 44 7 24 1006.7 1006.4 4.2
26/05:00am 9.5 6.2 4.7 72 2.2 NNW 11 41 6 22 1006.4 1006.0 4.2
26/04:30am 9.6 5.5 4.6 71 2.3 WNW 15 46 8 25 1006.1 1005.7 4.2
26/04:00am 9.4 6.1 4.4 71 2.3 S 11 43 6 23 1005.5 1005.2 4.2
26/03:30am 9.5 5.8 4.5 71 2.3 WNW 13 50 7 27 1005.5 1005.2 4.2
26/03:00am 9.4 5.8 4.8 73 2.1 NW 13 44 7 24 1005.3 1005.0 4.2
26/02:30am 9.2 5.1 4.6 73 2.1 WNW 15 39 8 21 1004.8 1004.5 4.2
26/02:00am 9.2 4.3 4.0 70 2.3 WNW 19 48 10 26 1004.8 1004.5 4.2
26/01:45am 9.1 2.8 3.9 70 2.3 WNW 26 54 14 29 1004.9 1004.6 4.2
26/01:44am 9.1 2.8 3.9 70 2.3 WNW 26 54 14 29 1004.9 1004.6 4.2
26/01:30am 9.5 6.2 4.7 72 2.2 NW 11 28 6 15 1004.8 1004.5 4.2
26/01:00am 9.2 5.5 4.4 72 2.2 NW 13 46 7 25 1004.6 1004.3 4.2
26/12:30am 9.3 6.4 4.7 73 2.1 WNW 9 39 5 21 1004.2 1003.9 4.2
26/12:00am 9.3 6.0 4.3 71 2.2 WNW 11 46 6 25 1004.3 1004.0 4.2
 
Date/Time
EDT
Temp
°C
App
Temp
°C
Dew
Point
Rel
Hum
%
Delta-T
°C
Wind Press
QNH
hPa
Press
MSL
hPa
Rain
since 9 am
mm
Dir
 
Spd
km/h
Gust
km/h
Spd
kts
Gust
kts
25/11:30pm 9.3 6.3 4.1 70 2.3 SE 9 32 5 17 1004.2 1003.9 4.2
25/11:00pm 9.3 6.3 4.3 71 2.2 WSW 9 43 5 23 1003.9 1003.6 4.2
25/10:30pm 9.5 6.6 4.5 71 2.3 NE 9 28 5 15 1003.7 1003.4 4.2
25/10:00pm 9.4 6.1 4.8 73 2.1 W 11 32 6 17 1003.5 1003.2 4.2
25/09:30pm 9.4 6.5 4.8 73 2.1 WNW 9 33 5 18 1003.1 1002.8 4.2
25/09:00pm 9.7 6.4 4.7 71 2.3 N 11 32 6 17 1002.9 1002.6 4.2
25/08:30pm 9.2 6.9 5.6 78 1.7 NNW 7 39 4 21 1002.5 1002.1 4.2
25/08:00pm 8.9 6.0 6.3 84 1.2 WNW 11 32 6 17 1002.1 1001.7 4.2
25/07:38pm 7.9 2.3 5.2 83 1.2 WSW 24 70 13 38 1001.8 1001.4 4.0
25/07:30pm 10.0 6.7 4.6 69 2.4 WNW 11 35 6 19 1001.6 1001.2 4.0
25/07:00pm 10.0 6.7 4.8 70 2.4 E 11 44 6 24 1001.0 1000.7 4.0
25/06:30pm 10.1 7.2 4.5 68 2.5 WSW 9 33 5 18 1000.9 1000.6 4.0
25/06:00pm 10.1 4.4 4.9 70 2.4 WSW 24 63 13 34 999.9 999.6 4.0
25/05:30pm 11.7 8.7 5.8 67 2.8 NNW 11 44 6 24 999.6 999.3 4.0
25/05:00pm 11.3 7.7 6.6 73 2.3 W 15 39 8 21 999.5 999.2 4.0
25/04:30pm 10.5 6.6 8.8 89 0.8 WSW 19 41 10 22 999.6 999.3 4.0
25/04:00pm 9.2 4.7 5.9 80 1.5 NW 19 44 10 24 1000.0 999.7 3.8
25/03:30pm 10.1 7.9 7.7 85 1.2 ESE 9 33 5 18 999.8 999.5 2.6
25/03:00pm 11.8 8.9 6.7 71 2.5 SW 11 26 6 14 999.5 999.2 1.6
25/02:30pm 11.0 5.9 7.5 79 1.7 SSW 24 52 13 28 999.2 998.8 1.6
25/02:26pm 11.1 4.7 7.0 76 2.0 SW 30 52 16 28 999.2 998.8 1.6
25/02:00pm 12.3 7.3 6.6 68 2.8 SSW 22 43 12 23 999.0 998.6 1.6
25/01:30pm 12.6 8.6 6.6 67 2.9 SW 17 32 9 17 999.1 998.7 1.6
25/01:00pm 12.6 8.5 7.9 73 2.4 SW 19 43 10 23 998.8 998.4 1.6
25/12:30pm 11.2 7.2 8.9 86 1.2 SW 20 48 11 26 998.6 998.2 1.6
25/12:00pm 12.3 8.8 8.6 78 1.9 WSW 17 35 9 19 998.6 998.2 1.6
25/11:30am 11.5 8.5 9.4 87 1.1 WSW 15 28 8 15 998.3 997.9 1.6
25/11:00am 10.7 7.7 7.9 83 1.4 SW 13 39 7 21 998.3 997.9 1.4
25/10:30am 10.1 6.0 7.9 86 1.1 SW 19 39 10 21 997.8 997.4 1.4
25/10:00am 10.4 7.0 9.2 92 0.6 SW 17 35 9 19 998.5 998.1 1.2

Other Formats:

Comma delimited format used in spreadsheet applications
http://www.bom.gov.au/fwo/IDT60801/IDT60801.95986.axf

JavaScript Object Notation format (JSON) in row-major order
http://www.bom.gov.au/fwo/IDT60801/IDT60801.95986.json